Terminal Aerodrome Forecast
Issued by NWS Austin/San Antonio, TX

Home | Current Version | Previous Version | Text Only | Print | Product List | Glossary On
Versions: 1 2 3 4 5 6 7 8 9 10 11 12 13 14 15 16 17 18 19 20 21 22 23 24 25 26 27 28 29 30 31 32 33
000
FTUS44 KEWX 270500
TAFSAT
TAF
KSAT 270520Z 2706/2812 02015KT P6SM BKN070
     FM271400 05012KT P6SM BKN024 OVC050=

USA.gov is the U.S. government's official web portal to all federal, state and local government web resources and services.